Morning Chorus — 9VNT5 — position and weather

sailwx.info

Track history (hours):
 
Tides and Currents Weather Stations Pressure Air Temp Water Temp Dewpoint Dewpoint Depression Visibility Wind Speed Wind Dir Waves Ship Positions

Morning Chorus

Last reported at 2018-May-29 09:50 UTC. Time now 2018-Jun-18 05:30 UTC.
Position N 34°52' E 139°49'.
Warning: this ship's position is 19 days out of date.

Length 200 m; draft 9.2 m.

Type: Cargo ship. MMSI: 565344000.

Date/timePositionNaut miles runAvg speedWind from/ knotsBaromVisibWave heightAir tempDewpointWater temp
2018-May-29 09:50N 34°52' E 139°49'618.5
2018-May-29 09:30N 34°56' E 139°43'817.1
2018-May-29 09:00N 35°04' E 139°44'815.6
2018-May-29 08:30N 35°12' E 139°46'611.2
2018-May-29 08:01N 35°17' E 139°45'612.5
2018-May-29 07:30N 35°23' E 139°42'4 8.6
2018-May-29 07:00N 35°27' E 139°41'0 0.1
2018-May-29 06:29N 35°27' E 139°41'0 0.0
2018-May-29 05:59N 35°27' E 139°41'0 0.0
2018-May-29 05:29N 35°27' E 139°41'0 0.0
2018-May-29 04:59N 35°27' E 139°41'0 0.0
2018-May-29 04:29N 35°27' E 139°41'0 0.0
2018-May-29 03:59N 35°27' E 139°41'0 0.0
2018-May-29 03:29N 35°27' E 139°41'0 0.0
2018-May-29 02:59N 35°27' E 139°41'0 0.0
2018-May-29 02:29N 35°27' E 139°41'0 0.0
2018-May-29 01:59N 35°27' E 139°41'0 0.0
2018-May-29 01:29N 35°27' E 139°41'0 0.0
2018-May-29 00:59N 35°27' E 139°41'0 0.0
2018-May-29 00:29N 35°27' E 139°41'0 0.0
2018-May-28 23:59N 35°27' E 139°41'0 0.0
2018-May-28 23:29N 35°27' E 139°41'0 0.0
2018-May-28 22:59N 35°27' E 139°41'0 0.0
2018-May-28 22:29N 35°27' E 139°41'0 0.0
2018-May-28 21:59N 35°27' E 139°41'1 1.2
2018-May-28 21:30N 35°27' E 139°42'4 7.1
2018-May-28 21:00N 35°23' E 139°43'4 8.8
2018-May-28 20:30N 35°19' E 139°43'510.7
2018-May-28 20:00N 35°14' E 139°47'611.4
2018-May-28 19:30N 35°09' E 139°46'612.8
2018-May-28 19:00N 35°03' E 139°44'714.4
2018-May-28 18:30N 34°56' E 139°42'714.3
2018-May-28 17:59N 34°49' E 139°40'612.1
2018-May-28 17:29N 34°43' E 139°38'6 9.9
2018-May-28 16:53N 34°38' E 139°34'  
2018-May-20 11:23N 35°59' E 120°29'613.2
2018-May-20 10:55N 36°01' E 120°21'5 9.9
2018-May-20 10:23N 36°02' E 120°15'4 3.4
2018-May-20 09:20N 35°60' E 120°12'0 0.0
2018-May-20 08:44N 35°60' E 120°12'0 0.0
2018-May-20 08:26N 35°60' E 120°12'0 0.0
2018-May-20 06:56N 35°60' E 120°12'0 0.0
2018-May-20 06:20N 35°60' E 120°12'0 0.0
2018-May-20 05:47N 35°60' E 120°12'0 0.0
2018-May-20 05:29N 35°60' E 120°12'0 0.0
2018-May-20 04:52N 35°60' E 120°12'0 0.0
2018-May-20 03:41N 35°60' E 120°12'0 0.0
2018-May-20 03:23N 35°60' E 120°12'0 0.0
2018-May-20 02:40N 35°60' E 120°12'0 0.0
2018-May-20 02:23N 35°60' E 120°12'0 0.0
2018-May-20 01:47N 35°60' E 120°12'0 0.0
2018-May-20 01:20N 35°60' E 120°12'0 0.0
2018-May-20 00:59N 35°60' E 120°12'0 0.0
2018-May-20 00:23N 35°60' E 120°12'0 0.0
2018-May-19 23:47N 35°60' E 120°12'0 0.0
2018-May-19 23:22N 35°60' E 120°12'0 0.0
2018-May-19 22:47N 35°60' E 120°12'0 0.0
2018-May-19 22:29N 35°60' E 120°12'0 0.0
2018-May-19 21:55N 35°60' E 120°12'0 0.0
2018-May-19 21:25N 35°60' E 120°12'0 0.0
2018-May-19 19:53N 35°60' E 120°12'0 0.0
2018-May-19 18:44N 35°60' E 120°12'0 0.0
2018-May-19 18:26N 35°60' E 120°12'0 0.0
2018-May-19 17:53N 35°60' E 120°12'0 0.0
2018-May-19 17:22N 35°60' E 120°12'0 0.0
2018-May-19 16:59N 35°60' E 120°12'3 3.5
2018-May-19 16:00N 36°02' E 120°15'7 9.9
2018-May-19 15:15N 36°01' E 120°24'  
Track history (hours):
 
Tides and Currents Weather Stations Pressure Air Temp Water Temp Dewpoint Dewpoint Depression Visibility Wind Speed Wind Dir Waves Ship Positions

Morning Chorus

Last reported at 2018-May-29 09:50 UTC. Time now 2018-Jun-18 05:30 UTC.
Position N 34°52' E 139°49'.
Warning: this ship's position is 19 days out of date.

Length 200 m; draft 9.2 m.

Type: Cargo ship. MMSI: 565344000.

Date/timePositionNaut miles runAvg speedWind from/ knotsBaromVisibWave heightAir tempDewpointWater temp
2018-May-29 09:50N 34°52' E 139°49'618.5
2018-May-29 09:30N 34°56' E 139°43'817.1
2018-May-29 09:00N 35°04' E 139°44'815.6
2018-May-29 08:30N 35°12' E 139°46'611.2
2018-May-29 08:01N 35°17' E 139°45'612.5
2018-May-29 07:30N 35°23' E 139°42'4 8.6
2018-May-29 07:00N 35°27' E 139°41'0 0.1
2018-May-29 06:29N 35°27' E 139°41'0 0.0
2018-May-29 05:59N 35°27' E 139°41'0 0.0
2018-May-29 05:29N 35°27' E 139°41'0 0.0
2018-May-29 04:59N 35°27' E 139°41'0 0.0
2018-May-29 04:29N 35°27' E 139°41'0 0.0
2018-May-29 03:59N 35°27' E 139°41'0 0.0
2018-May-29 03:29N 35°27' E 139°41'0 0.0
2018-May-29 02:59N 35°27' E 139°41'0 0.0
2018-May-29 02:29N 35°27' E 139°41'0 0.0
2018-May-29 01:59N 35°27' E 139°41'0 0.0
2018-May-29 01:29N 35°27' E 139°41'0 0.0
2018-May-29 00:59N 35°27' E 139°41'0 0.0
2018-May-29 00:29N 35°27' E 139°41'0 0.0
2018-May-28 23:59N 35°27' E 139°41'0 0.0
2018-May-28 23:29N 35°27' E 139°41'0 0.0
2018-May-28 22:59N 35°27' E 139°41'0 0.0
2018-May-28 22:29N 35°27' E 139°41'0 0.0
2018-May-28 21:59N 35°27' E 139°41'1 1.2
2018-May-28 21:30N 35°27' E 139°42'4 7.1
2018-May-28 21:00N 35°23' E 139°43'4 8.8
2018-May-28 20:30N 35°19' E 139°43'510.7
2018-May-28 20:00N 35°14' E 139°47'611.4
2018-May-28 19:30N 35°09' E 139°46'612.8
2018-May-28 19:00N 35°03' E 139°44'714.4
2018-May-28 18:30N 34°56' E 139°42'714.3
2018-May-28 17:59N 34°49' E 139°40'612.1
2018-May-28 17:29N 34°43' E 139°38'6 9.9
2018-May-28 16:53N 34°38' E 139°34'  
2018-May-20 11:23N 35°59' E 120°29'613.2
2018-May-20 10:55N 36°01' E 120°21'5 9.9
2018-May-20 10:23N 36°02' E 120°15'4 3.4
2018-May-20 09:20N 35°60' E 120°12'0 0.0
2018-May-20 08:44N 35°60' E 120°12'0 0.0
2018-May-20 08:26N 35°60' E 120°12'0 0.0
2018-May-20 06:56N 35°60' E 120°12'0 0.0
2018-May-20 06:20N 35°60' E 120°12'0 0.0
2018-May-20 05:47N 35°60' E 120°12'0 0.0
2018-May-20 05:29N 35°60' E 120°12'0 0.0
2018-May-20 04:52N 35°60' E 120°12'0 0.0
2018-May-20 03:41N 35°60' E 120°12'0 0.0
2018-May-20 03:23N 35°60' E 120°12'0 0.0
2018-May-20 02:40N 35°60' E 120°12'0 0.0
2018-May-20 02:23N 35°60' E 120°12'0 0.0
2018-May-20 01:47N 35°60' E 120°12'0 0.0
2018-May-20 01:20N 35°60' E 120°12'0 0.0
2018-May-20 00:59N 35°60' E 120°12'0 0.0
2018-May-20 00:23N 35°60' E 120°12'0 0.0
2018-May-19 23:47N 35°60' E 120°12'0 0.0
2018-May-19 23:22N 35°60' E 120°12'0 0.0
2018-May-19 22:47N 35°60' E 120°12'0 0.0
2018-May-19 22:29N 35°60' E 120°12'0 0.0
2018-May-19 21:55N 35°60' E 120°12'0 0.0
2018-May-19 21:25N 35°60' E 120°12'0 0.0
2018-May-19 19:53N 35°60' E 120°12'0 0.0
2018-May-19 18:44N 35°60' E 120°12'0 0.0
2018-May-19 18:26N 35°60' E 120°12'0 0.0
2018-May-19 17:53N 35°60' E 120°12'0 0.0
2018-May-19 17:22N 35°60' E 120°12'0 0.0
2018-May-19 16:59N 35°60' E 120°12'3 3.5
2018-May-19 16:00N 36°02' E 120°15'7 9.9
2018-May-19 15:15N 36°01' E 120°24'  

Dump ship's entire track history